sensor_id;sensor_type;location;lat;lon;timestamp;temperature;humidity
42743;DHT22;28397;44.552;-0.848;2022-09-03T00:01:23;22.10;99.90
42743;DHT22;28397;44.552;-0.848;2022-09-03T00:04:01;22.00;99.90
42743;DHT22;28397;44.552;-0.848;2022-09-03T00:06:41;22.00;99.90
42743;DHT22;28397;44.552;-0.848;2022-09-03T00:09:40;22.00;99.90
42743;DHT22;28397;44.552;-0.848;2022-09-03T00:14:50;22.00;99.90
42743;DHT22;28397;44.552;-0.848;2022-09-03T00:17:24;22.00;99.90
42743;DHT22;28397;44.552;-0.848;2022-09-03T00:19:56;21.90;99.90
42743;DHT22;28397;44.552;-0.848;2022-09-03T00:22:28;21.90;99.90
42743;DHT22;28397;44.552;-0.848;2022-09-03T00:24:56;21.90;99.90
42743;DHT22;28397;44.552;-0.848;2022-09-03T00:27:27;21.90;99.90
42743;DHT22;28397;44.552;-0.848;2022-09-03T00:32:46;21.80;99.90
42743;DHT22;28397;44.552;-0.848;2022-09-03T00:35:32;21.70;99.90
42743;DHT22;28397;44.552;-0.848;2022-09-03T00:38:00;21.70;99.90
42743;DHT22;28397;44.552;-0.848;2022-09-03T01:00:14;21.10;99.90
42743;DHT22;28397;44.552;-0.848;2022-09-03T01:13:27;21.60;99.90
42743;DHT22;28397;44.552;-0.848;2022-09-03T01:18:59;21.50;99.90
42743;DHT22;28397;44.552;-0.848;2022-09-03T01:21:47;21.40;99.90
42743;DHT22;28397;44.552;-0.848;2022-09-03T01:27:17;21.60;99.90
42743;DHT22;28397;44.552;-0.848;2022-09-03T01:30:04;21.60;99.90
42743;DHT22;28397;44.552;-0.848;2022-09-03T01:32:42;21.60;99.90
42743;DHT22;28397;44.552;-0.848;2022-09-03T01:40:44;21.50;99.90
42743;DHT22;28397;44.552;-0.848;2022-09-03T01:56:59;21.40;99.90
42743;DHT22;28397;44.552;-0.848;2022-09-03T02:02:25;21.40;99.90
42743;DHT22;28397;44.552;-0.848;2022-09-03T02:07:30;21.30;99.90
42743;DHT22;28397;44.552;-0.848;2022-09-03T02:10:01;21.40;99.90
42743;DHT22;28397;44.552;-0.848;2022-09-03T02:12:29;21.40;99.90
42743;DHT22;28397;44.552;-0.848;2022-09-03T02:14:59;21.30;99.90
42743;DHT22;28397;44.552;-0.848;2022-09-03T02:17:26;21.30;99.90
42743;DHT22;28397;44.552;-0.848;2022-09-03T02:19:51;21.30;99.90
42743;DHT22;28397;44.552;-0.848;2022-09-03T02:22:17;21.30;99.90
42743;DHT22;28397;44.552;-0.848;2022-09-03T02:24:43;21.30;99.90
42743;DHT22;28397;44.552;-0.848;2022-09-03T02:27:09;21.30;99.90
42743;DHT22;28397;44.552;-0.848;2022-09-03T02:29:34;21.20;99.90
42743;DHT22;28397;44.552;-0.848;2022-09-03T02:32:00;21.10;99.90
42743;DHT22;28397;44.552;-0.848;2022-09-03T02:34:26;21.10;99.90
42743;DHT22;28397;44.552;-0.848;2022-09-03T02:36:52;21.10;99.90
42743;DHT22;28397;44.552;-0.848;2022-09-03T02:39:18;21.10;99.90
42743;DHT22;28397;44.552;-0.848;2022-09-03T02:41:44;21.20;99.90
42743;DHT22;28397;44.552;-0.848;2022-09-03T02:46:43;21.20;99.90
42743;DHT22;28397;44.552;-0.848;2022-09-03T02:49:10;21.10;99.90
42743;DHT22;28397;44.552;-0.848;2022-09-03T02:51:38;21.10;99.90
42743;DHT22;28397;44.552;-0.848;2022-09-03T02:54:05;21.20;99.90
42743;DHT22;28397;44.552;-0.848;2022-09-03T02:56:31;21.20;99.90
42743;DHT22;28397;44.552;-0.848;2022-09-03T02:58:57;21.10;99.90
42743;DHT22;28397;44.552;-0.848;2022-09-03T03:01:23;21.10;99.90
42743;DHT22;28397;44.552;-0.848;2022-09-03T03:03:49;21.10;99.90
42743;DHT22;28397;44.552;-0.848;2022-09-03T03:06:15;21.10;99.90
42743;DHT22;28397;44.552;-0.848;2022-09-03T03:08:41;21.10;99.90
42743;DHT22;28397;44.552;-0.848;2022-09-03T03:11:08;21.10;99.90
42743;DHT22;28397;44.552;-0.848;2022-09-03T03:13:34;21.10;99.90
42743;DHT22;28397;44.552;-0.848;2022-09-03T03:16:03;21.10;99.90
42743;DHT22;28397;44.552;-0.848;2022-09-03T03:18:31;21.00;99.90
42743;DHT22;28397;44.552;-0.848;2022-09-03T03:21:03;21.00;99.90
42743;DHT22;28397;44.552;-0.848;2022-09-03T03:23:31;20.70;99.90
42743;DHT22;28397;44.552;-0.848;2022-09-03T03:26:01;20.10;99.90
42743;DHT22;28397;44.552;-0.848;2022-09-03T03:28:27;20.10;99.90
42743;DHT22;28397;44.552;-0.848;2022-09-03T03:30:52;20.00;99.90
42743;DHT22;28397;44.552;-0.848;2022-09-03T03:33:18;20.10;99.90
42743;DHT22;28397;44.552;-0.848;2022-09-03T03:35:45;20.20;99.90
42743;DHT22;28397;44.552;-0.848;2022-09-03T03:38:11;20.30;99.90
42743;DHT22;28397;44.552;-0.848;2022-09-03T03:40:39;20.00;99.90
42743;DHT22;28397;44.552;-0.848;2022-09-03T03:43:05;20.50;99.90
42743;DHT22;28397;44.552;-0.848;2022-09-03T03:45:31;20.70;99.90
42743;DHT22;28397;44.552;-0.848;2022-09-03T03:47:57;20.70;99.90
42743;DHT22;28397;44.552;-0.848;2022-09-03T03:50:24;20.60;99.90
42743;DHT22;28397;44.552;-0.848;2022-09-03T03:52:50;20.70;99.90
42743;DHT22;28397;44.552;-0.848;2022-09-03T03:55:16;20.80;99.90
42743;DHT22;28397;44.552;-0.848;2022-09-03T03:57:41;20.80;99.90
42743;DHT22;28397;44.552;-0.848;2022-09-03T04:00:07;20.50;99.90
42743;DHT22;28397;44.552;-0.848;2022-09-03T04:02:33;20.60;99.90
42743;DHT22;28397;44.552;-0.848;2022-09-03T04:04:59;20.50;99.90
42743;DHT22;28397;44.552;-0.848;2022-09-03T04:07:25;20.60;99.90
42743;DHT22;28397;44.552;-0.848;2022-09-03T04:09:51;20.60;99.90
42743;DHT22;28397;44.552;-0.848;2022-09-03T04:12:16;20.70;99.90
42743;DHT22;28397;44.552;-0.848;2022-09-03T04:14:43;20.70;99.90
42743;DHT22;28397;44.552;-0.848;2022-09-03T04:17:09;20.70;99.90
42743;DHT22;28397;44.552;-0.848;2022-09-03T04:19:34;20.40;99.90
42743;DHT22;28397;44.552;-0.848;2022-09-03T04:22:01;20.50;99.90
42743;DHT22;28397;44.552;-0.848;2022-09-03T04:24:27;20.40;99.90
42743;DHT22;28397;44.552;-0.848;2022-09-03T04:26:53;20.50;99.90
42743;DHT22;28397;44.552;-0.848;2022-09-03T04:29:19;20.30;99.90
42743;DHT22;28397;44.552;-0.848;2022-09-03T04:31:46;20.40;99.90
42743;DHT22;28397;44.552;-0.848;2022-09-03T04:34:30;20.50;99.90
42743;DHT22;28397;44.552;-0.848;2022-09-03T04:36:56;20.60;99.90
42743;DHT22;28397;44.552;-0.848;2022-09-03T04:39:25;20.00;99.90
42743;DHT22;28397;44.552;-0.848;2022-09-03T04:41:51;20.20;99.90
42743;DHT22;28397;44.552;-0.848;2022-09-03T04:44:16;20.30;99.90
42743;DHT22;28397;44.552;-0.848;2022-09-03T04:46:42;20.30;99.90
42743;DHT22;28397;44.552;-0.848;2022-09-03T04:49:08;20.60;99.90
42743;DHT22;28397;44.552;-0.848;2022-09-03T04:51:34;20.40;99.90
42743;DHT22;28397;44.552;-0.848;2022-09-03T04:54:03;20.40;99.90
42743;DHT22;28397;44.552;-0.848;2022-09-03T04:56:33;20.40;99.90
42743;DHT22;28397;44.552;-0.848;2022-09-03T04:59:08;20.60;99.90
42743;DHT22;28397;44.552;-0.848;2022-09-03T05:01:37;20.50;99.90
42743;DHT22;28397;44.552;-0.848;2022-09-03T05:04:03;20.40;99.90
42743;DHT22;28397;44.552;-0.848;2022-09-03T05:06:30;20.30;99.90
42743;DHT22;28397;44.552;-0.848;2022-09-03T05:08:56;20.00;99.90
42743;DHT22;28397;44.552;-0.848;2022-09-03T05:11:23;20.00;99.90
42743;DHT22;28397;44.552;-0.848;2022-09-03T05:13:52;19.50;99.90
42743;DHT22;28397;44.552;-0.848;2022-09-03T05:16:19;19.90;99.90
42743;DHT22;28397;44.552;-0.848;2022-09-03T05:18:45;20.10;99.90
42743;DHT22;28397;44.552;-0.848;2022-09-03T05:21:14;20.10;99.90
42743;DHT22;28397;44.552;-0.848;2022-09-03T05:23:42;20.20;99.90
42743;DHT22;28397;44.552;-0.848;2022-09-03T05:26:11;20.20;99.90
42743;DHT22;28397;44.552;-0.848;2022-09-03T05:28:38;19.50;99.90
42743;DHT22;28397;44.552;-0.848;2022-09-03T05:31:10;19.60;99.90
42743;DHT22;28397;44.552;-0.848;2022-09-03T05:33:38;20.10;99.90
42743;DHT22;28397;44.552;-0.848;2022-09-03T05:36:06;20.30;99.90
42743;DHT22;28397;44.552;-0.848;2022-09-03T05:38:33;20.30;99.90
42743;DHT22;28397;44.552;-0.848;2022-09-03T05:41:03;20.40;99.90
42743;DHT22;28397;44.552;-0.848;2022-09-03T05:43:30;20.20;99.90
42743;DHT22;28397;44.552;-0.848;2022-09-03T05:46:03;20.40;99.90
42743;DHT22;28397;44.552;-0.848;2022-09-03T05:48:29;20.40;99.90
42743;DHT22;28397;44.552;-0.848;2022-09-03T05:51:12;20.40;99.90
42743;DHT22;28397;44.552;-0.848;2022-09-03T05:53:41;20.40;99.90
42743;DHT22;28397;44.552;-0.848;2022-09-03T05:56:12;20.10;99.90
42743;DHT22;28397;44.552;-0.848;2022-09-03T05:58:40;20.40;99.90
42743;DHT22;28397;44.552;-0.848;2022-09-03T06:03:35;20.50;99.90
42743;DHT22;28397;44.552;-0.848;2022-09-03T06:06:01;20.50;99.90
42743;DHT22;28397;44.552;-0.848;2022-09-03T06:08:29;20.50;99.90
42743;DHT22;28397;44.552;-0.848;2022-09-03T06:10:59;20.60;99.90
42743;DHT22;28397;44.552;-0.848;2022-09-03T06:13:24;20.50;99.90
42743;DHT22;28397;44.552;-0.848;2022-09-03T06:15:58;20.10;99.90
42743;DHT22;28397;44.552;-0.848;2022-09-03T06:18:26;20.40;99.90
42743;DHT22;28397;44.552;-0.848;2022-09-03T06:21:02;20.30;99.90
42743;DHT22;28397;44.552;-0.848;2022-09-03T06:23:29;20.30;99.90
42743;DHT22;28397;44.552;-0.848;2022-09-03T06:26:07;20.50;99.90
42743;DHT22;28397;44.552;-0.848;2022-09-03T06:28:36;20.10;99.90
42743;DHT22;28397;44.552;-0.848;2022-09-03T06:31:03;20.30;99.90
42743;DHT22;28397;44.552;-0.848;2022-09-03T06:33:32;20.50;99.90
42743;DHT22;28397;44.552;-0.848;2022-09-03T06:35:59;20.60;99.90
42743;DHT22;28397;44.552;-0.848;2022-09-03T06:38:29;20.20;99.90
42743;DHT22;28397;44.552;-0.848;2022-09-03T06:43:39;20.20;99.90
42743;DHT22;28397;44.552;-0.848;2022-09-03T06:46:09;19.90;99.90
42743;DHT22;28397;44.552;-0.848;2022-09-03T06:48:36;20.00;99.90
42743;DHT22;28397;44.552;-0.848;2022-09-03T06:51:10;20.10;99.90
42743;DHT22;28397;44.552;-0.848;2022-09-03T06:53:38;20.60;99.90
42743;DHT22;28397;44.552;-0.848;2022-09-03T06:56:06;21.10;99.90
42743;DHT22;28397;44.552;-0.848;2022-09-03T06:58:34;21.40;99.90
42743;DHT22;28397;44.552;-0.848;2022-09-03T07:01:06;21.20;99.90
42743;DHT22;28397;44.552;-0.848;2022-09-03T07:03:34;20.60;99.90
42743;DHT22;28397;44.552;-0.848;2022-09-03T07:06:04;20.50;99.90
42743;DHT22;28397;44.552;-0.848;2022-09-03T07:08:31;20.50;99.90
42743;DHT22;28397;44.552;-0.848;2022-09-03T07:11:06;20.30;99.90
42743;DHT22;28397;44.552;-0.848;2022-09-03T07:13:39;20.20;99.90
42743;DHT22;28397;44.552;-0.848;2022-09-03T07:16:10;20.00;99.90
42743;DHT22;28397;44.552;-0.848;2022-09-03T07:18:36;20.00;99.90
42743;DHT22;28397;44.552;-0.848;2022-09-03T07:21:11;19.90;99.90
42743;DHT22;28397;44.552;-0.848;2022-09-03T07:23:37;20.00;99.90
42743;DHT22;28397;44.552;-0.848;2022-09-03T07:26:06;20.10;99.90
42743;DHT22;28397;44.552;-0.848;2022-09-03T07:28:37;20.30;99.90
42743;DHT22;28397;44.552;-0.848;2022-09-03T07:31:09;20.70;99.90
42743;DHT22;28397;44.552;-0.848;2022-09-03T07:33:42;20.80;99.90
42743;DHT22;28397;44.552;-0.848;2022-09-03T07:36:16;20.80;99.90
42743;DHT22;28397;44.552;-0.848;2022-09-03T07:38:43;20.90;99.90
42743;DHT22;28397;44.552;-0.848;2022-09-03T07:41:10;21.10;99.90
42743;DHT22;28397;44.552;-0.848;2022-09-03T07:43:44;20.80;99.90
42743;DHT22;28397;44.552;-0.848;2022-09-03T07:46:17;21.40;99.90
42743;DHT22;28397;44.552;-0.848;2022-09-03T07:48:51;21.80;99.90
42743;DHT22;28397;44.552;-0.848;2022-09-03T07:51:18;22.00;99.90
42743;DHT22;28397;44.552;-0.848;2022-09-03T07:53:45;22.60;99.90
42743;DHT22;28397;44.552;-0.848;2022-09-03T07:56:12;22.30;99.90
42743;DHT22;28397;44.552;-0.848;2022-09-03T07:58:38;22.50;99.90
42743;DHT22;28397;44.552;-0.848;2022-09-03T08:01:09;22.10;99.90
42743;DHT22;28397;44.552;-0.848;2022-09-03T08:03:35;22.60;99.90
42743;DHT22;28397;44.552;-0.848;2022-09-03T08:06:04;23.00;99.90
42743;DHT22;28397;44.552;-0.848;2022-09-03T08:08:30;22.90;99.90
42743;DHT22;28397;44.552;-0.848;2022-09-03T08:11:18;23.10;99.90
42743;DHT22;28397;44.552;-0.848;2022-09-03T08:13:55;24.20;99.90
42743;DHT22;28397;44.552;-0.848;2022-09-03T08:16:26;24.10;99.90
42743;DHT22;28397;44.552;-0.848;2022-09-03T08:18:52;25.30;99.90
42743;DHT22;28397;44.552;-0.848;2022-09-03T08:21:18;25.00;99.90
42743;DHT22;28397;44.552;-0.848;2022-09-03T08:23:50;24.60;99.90
42743;DHT22;28397;44.552;-0.848;2022-09-03T08:26:18;26.00;99.90
42743;DHT22;28397;44.552;-0.848;2022-09-03T08:28:44;26.20;99.90
42743;DHT22;28397;44.552;-0.848;2022-09-03T08:31:16;26.60;99.90
42743;DHT22;28397;44.552;-0.848;2022-09-03T08:33:44;27.20;99.90
42743;DHT22;28397;44.552;-0.848;2022-09-03T08:36:15;27.20;99.90
42743;DHT22;28397;44.552;-0.848;2022-09-03T08:38:43;26.40;99.90
42743;DHT22;28397;44.552;-0.848;2022-09-03T08:41:16;26.60;99.90
42743;DHT22;28397;44.552;-0.848;2022-09-03T08:46:31;25.70;99.90
42743;DHT22;28397;44.552;-0.848;2022-09-03T08:48:58;25.40;99.90
42743;DHT22;28397;44.552;-0.848;2022-09-03T08:51:25;24.70;99.90
42743;DHT22;28397;44.552;-0.848;2022-09-03T08:53:56;24.40;99.90
42743;DHT22;28397;44.552;-0.848;2022-09-03T08:56:30;24.20;99.90
42743;DHT22;28397;44.552;-0.848;2022-09-03T08:59:00;24.80;99.90
42743;DHT22;28397;44.552;-0.848;2022-09-03T09:02:11;25.80;99.90
42743;DHT22;28397;44.552;-0.848;2022-09-03T09:09:42;25.60;99.90
42743;DHT22;28397;44.552;-0.848;2022-09-03T09:12:27;25.00;99.90
42743;DHT22;28397;44.552;-0.848;2022-09-03T09:15:57;24.60;99.90
42743;DHT22;28397;44.552;-0.848;2022-09-03T09:18:09;24.40;99.90
42743;DHT22;28397;44.552;-0.848;2022-09-03T09:21:07;24.70;99.90
42743;DHT22;28397;44.552;-0.848;2022-09-03T09:23:43;24.10;99.90
42743;DHT22;28397;44.552;-0.848;2022-09-03T09:26:14;24.10;99.90
42743;DHT22;28397;44.552;-0.848;2022-09-03T09:28:41;24.30;99.90
42743;DHT22;28397;44.552;-0.848;2022-09-03T09:31:16;24.30;99.90
42743;DHT22;28397;44.552;-0.848;2022-09-03T09:33:44;24.40;99.90
42743;DHT22;28397;44.552;-0.848;2022-09-03T09:36:14;24.20;99.90
42743;DHT22;28397;44.552;-0.848;2022-09-03T09:38:42;24.20;99.90
42743;DHT22;28397;44.552;-0.848;2022-09-03T09:41:16;24.20;99.90
42743;DHT22;28397;44.552;-0.848;2022-09-03T09:43:43;24.80;99.90
42743;DHT22;28397;44.552;-0.848;2022-09-03T09:46:21;26.10;99.90
42743;DHT22;28397;44.552;-0.848;2022-09-03T09:48:50;26.90;99.90
42743;DHT22;28397;44.552;-0.848;2022-09-03T09:51:22;27.30;99.90
42743;DHT22;28397;44.552;-0.848;2022-09-03T09:54:01;27.00;99.90
42743;DHT22;28397;44.552;-0.848;2022-09-03T09:56:27;27.10;99.90
42743;DHT22;28397;44.552;-0.848;2022-09-03T09:59:04;27.60;99.90
42743;DHT22;28397;44.552;-0.848;2022-09-03T10:01:30;26.40;99.90
42743;DHT22;28397;44.552;-0.848;2022-09-03T10:03:58;27.00;99.90
42743;DHT22;28397;44.552;-0.848;2022-09-03T10:06:29;26.20;99.90
42743;DHT22;28397;44.552;-0.848;2022-09-03T10:09:17;25.50;99.90
42743;DHT22;28397;44.552;-0.848;2022-09-03T10:11:47;25.40;99.90
42743;DHT22;28397;44.552;-0.848;2022-09-03T10:17:13;25.60;99.90
42743;DHT22;28397;44.552;-0.848;2022-09-03T10:22:44;24.60;99.90
42743;DHT22;28397;44.552;-0.848;2022-09-03T10:25:15;24.50;99.90
42743;DHT22;28397;44.552;-0.848;2022-09-03T10:27:42;24.50;99.90
42743;DHT22;28397;44.552;-0.848;2022-09-03T10:30:11;24.30;99.90
42743;DHT22;28397;44.552;-0.848;2022-09-03T10:38:41;24.50;99.90
42743;DHT22;28397;44.552;-0.848;2022-09-03T10:41:15;24.80;99.90
42743;DHT22;28397;44.552;-0.848;2022-09-03T10:55:40;25.10;99.90
42743;DHT22;28397;44.552;-0.848;2022-09-03T11:01:02;25.20;99.90
42743;DHT22;28397;44.552;-0.848;2022-09-03T11:03:42;24.60;99.90
42743;DHT22;28397;44.552;-0.848;2022-09-03T11:06:28;24.60;99.90
42743;DHT22;28397;44.552;-0.848;2022-09-03T11:09:09;24.70;99.90
42743;DHT22;28397;44.552;-0.848;2022-09-03T11:11:52;24.80;99.90
42743;DHT22;28397;44.552;-0.848;2022-09-03T11:17:15;24.70;99.90
42743;DHT22;28397;44.552;-0.848;2022-09-03T11:19:49;24.90;99.90
42743;DHT22;28397;44.552;-0.848;2022-09-03T11:22:17;24.90;99.90
42743;DHT22;28397;44.552;-0.848;2022-09-03T11:24:51;24.70;99.90
42743;DHT22;28397;44.552;-0.848;2022-09-03T11:30:04;24.80;99.90
42743;DHT22;28397;44.552;-0.848;2022-09-03T11:32:59;24.80;99.90
42743;DHT22;28397;44.552;-0.848;2022-09-03T11:37:59;25.30;99.90
42743;DHT22;28397;44.552;-0.848;2022-09-03T11:40:35;25.70;99.90
42743;DHT22;28397;44.552;-0.848;2022-09-03T11:48:44;25.90;99.90
42743;DHT22;28397;44.552;-0.848;2022-09-03T11:54:00;25.70;99.90
42743;DHT22;28397;44.552;-0.848;2022-09-03T11:56:27;25.50;99.90
42743;DHT22;28397;44.552;-0.848;2022-09-03T11:59:23;25.80;99.90
42743;DHT22;28397;44.552;-0.848;2022-09-03T12:01:50;25.90;99.90
42743;DHT22;28397;44.552;-0.848;2022-09-03T12:04:21;25.60;99.90
42743;DHT22;28397;44.552;-0.848;2022-09-03T12:15:45;25.40;99.90
42743;DHT22;28397;44.552;-0.848;2022-09-03T12:18:40;25.20;99.90
42743;DHT22;28397;44.552;-0.848;2022-09-03T12:21:08;25.10;99.90
42743;DHT22;28397;44.552;-0.848;2022-09-03T12:23:51;26.30;99.90
42743;DHT22;28397;44.552;-0.848;2022-09-03T12:26:24;25.60;99.90
42743;DHT22;28397;44.552;-0.848;2022-09-03T12:28:58;25.60;99.90
42743;DHT22;28397;44.552;-0.848;2022-09-03T12:31:26;25.80;99.90
42743;DHT22;28397;44.552;-0.848;2022-09-03T12:34:11;26.30;99.90
42743;DHT22;28397;44.552;-0.848;2022-09-03T12:36:42;26.20;99.90
42743;DHT22;28397;44.552;-0.848;2022-09-03T12:44:37;26.00;99.90
42743;DHT22;28397;44.552;-0.848;2022-09-03T12:49:43;25.90;99.90
42743;DHT22;28397;44.552;-0.848;2022-09-03T12:52:27;25.90;99.90
42743;DHT22;28397;44.552;-0.848;2022-09-03T12:57:22;25.80;99.90
42743;DHT22;28397;44.552;-0.848;2022-09-03T12:59:54;25.90;99.90
42743;DHT22;28397;44.552;-0.848;2022-09-03T13:02:27;25.90;99.90
42743;DHT22;28397;44.552;-0.848;2022-09-03T13:04:54;26.10;99.90
42743;DHT22;28397;44.552;-0.848;2022-09-03T13:07:30;26.70;99.90
42743;DHT22;28397;44.552;-0.848;2022-09-03T13:10:04;26.30;99.90
42743;DHT22;28397;44.552;-0.848;2022-09-03T13:12:43;26.00;99.90
42743;DHT22;28397;44.552;-0.848;2022-09-03T13:15:18;26.10;99.90
42743;DHT22;28397;44.552;-0.848;2022-09-03T13:21:27;26.00;99.90
42743;DHT22;28397;44.552;-0.848;2022-09-03T13:23:41;25.90;99.90
42743;DHT22;28397;44.552;-0.848;2022-09-03T13:26:20;26.00;99.90
42743;DHT22;28397;44.552;-0.848;2022-09-03T13:31:54;25.50;99.90
42743;DHT22;28397;44.552;-0.848;2022-09-03T13:35:03;25.70;99.90
42743;DHT22;28397;44.552;-0.848;2022-09-03T13:42:49;25.80;99.90
42743;DHT22;28397;44.552;-0.848;2022-09-03T13:51:48;25.80;99.90
42743;DHT22;28397;44.552;-0.848;2022-09-03T13:54:26;25.50;99.90
42743;DHT22;28397;44.552;-0.848;2022-09-03T13:57:03;25.80;99.90
42743;DHT22;28397;44.552;-0.848;2022-09-03T13:59:59;25.90;99.90
42743;DHT22;28397;44.552;-0.848;2022-09-03T14:02:51;25.90;99.90
42743;DHT22;28397;44.552;-0.848;2022-09-03T14:08:31;25.60;99.90
42743;DHT22;28397;44.552;-0.848;2022-09-03T14:11:22;25.60;99.90
42743;DHT22;28397;44.552;-0.848;2022-09-03T14:19:08;25.70;99.90
42743;DHT22;28397;44.552;-0.848;2022-09-03T14:21:53;25.80;99.90
42743;DHT22;28397;44.552;-0.848;2022-09-03T14:26:58;25.90;99.90
42743;DHT22;28397;44.552;-0.848;2022-09-03T14:29:35;25.80;99.90
42743;DHT22;28397;44.552;-0.848;2022-09-03T14:40:51;25.90;99.90
42743;DHT22;28397;44.552;-0.848;2022-09-03T15:00:04;25.50;99.90
42743;DHT22;28397;44.552;-0.848;2022-09-03T15:17:14;25.40;99.90
42743;DHT22;28397;44.552;-0.848;2022-09-03T15:30:14;25.40;99.90
42743;DHT22;28397;44.552;-0.848;2022-09-03T15:35:51;25.20;99.90
42743;DHT22;28397;44.552;-0.848;2022-09-03T15:43:47;25.00;99.90
42743;DHT22;28397;44.552;-0.848;2022-09-03T15:49:20;25.20;99.90
42743;DHT22;28397;44.552;-0.848;2022-09-03T15:52:01;25.20;99.90
42743;DHT22;28397;44.552;-0.848;2022-09-03T15:57:20;25.30;99.90
42743;DHT22;28397;44.552;-0.848;2022-09-03T16:00:21;25.20;99.90
42743;DHT22;28397;44.552;-0.848;2022-09-03T16:02:53;25.20;99.90
42743;DHT22;28397;44.552;-0.848;2022-09-03T16:05:39;25.00;99.90
42743;DHT22;28397;44.552;-0.848;2022-09-03T16:17:12;25.00;99.90
42743;DHT22;28397;44.552;-0.848;2022-09-03T16:19:47;25.00;99.90
42743;DHT22;28397;44.552;-0.848;2022-09-03T16:22:26;25.10;99.90
42743;DHT22;28397;44.552;-0.848;2022-09-03T16:25:09;24.90;99.90
42743;DHT22;28397;44.552;-0.848;2022-09-03T16:27:49;24.90;99.90
42743;DHT22;28397;44.552;-0.848;2022-09-03T16:30:51;24.90;99.90
42743;DHT22;28397;44.552;-0.848;2022-09-03T16:36:42;24.90;99.90
42743;DHT22;28397;44.552;-0.848;2022-09-03T16:42:21;24.80;99.90
42743;DHT22;28397;44.552;-0.848;2022-09-03T16:45:18;24.80;99.90
42743;DHT22;28397;44.552;-0.848;2022-09-03T16:50:27;24.70;99.90
42743;DHT22;28397;44.552;-0.848;2022-09-03T16:53:11;24.70;99.90
42743;DHT22;28397;44.552;-0.848;2022-09-03T16:55:59;24.70;99.90
42743;DHT22;28397;44.552;-0.848;2022-09-03T17:03:32;24.60;99.90
42743;DHT22;28397;44.552;-0.848;2022-09-03T17:06:29;24.60;99.90
42743;DHT22;28397;44.552;-0.848;2022-09-03T17:08:59;24.60;99.90
42743;DHT22;28397;44.552;-0.848;2022-09-03T17:14:26;24.60;99.90
42743;DHT22;28397;44.552;-0.848;2022-09-03T17:17:08;24.60;99.90
42743;DHT22;28397;44.552;-0.848;2022-09-03T17:25:39;24.40;99.90
42743;DHT22;28397;44.552;-0.848;2022-09-03T17:31:01;24.40;99.90
42743;DHT22;28397;44.552;-0.848;2022-09-03T17:34:04;24.40;99.90
42743;DHT22;28397;44.552;-0.848;2022-09-03T17:36:36;24.30;99.90
42743;DHT22;28397;44.552;-0.848;2022-09-03T17:42:03;24.30;99.90
42743;DHT22;28397;44.552;-0.848;2022-09-03T17:45:00;24.20;99.90
42743;DHT22;28397;44.552;-0.848;2022-09-03T17:47:34;24.20;99.90
42743;DHT22;28397;44.552;-0.848;2022-09-03T17:50:27;24.10;99.90
42743;DHT22;28397;44.552;-0.848;2022-09-03T17:55:52;24.00;99.90
42743;DHT22;28397;44.552;-0.848;2022-09-03T17:58:42;24.10;99.90
42743;DHT22;28397;44.552;-0.848;2022-09-03T18:03:55;24.00;99.90
42743;DHT22;28397;44.552;-0.848;2022-09-03T18:12:02;23.80;99.90
42743;DHT22;28397;44.552;-0.848;2022-09-03T18:14:34;23.60;99.90
42743;DHT22;28397;44.552;-0.848;2022-09-03T18:17:33;23.70;99.90
42743;DHT22;28397;44.552;-0.848;2022-09-03T18:20:05;23.50;99.90
42743;DHT22;28397;44.552;-0.848;2022-09-03T18:25:56;23.40;99.90
42743;DHT22;28397;44.552;-0.848;2022-09-03T18:29:02;23.10;99.90
42743;DHT22;28397;44.552;-0.848;2022-09-03T18:31:48;23.20;99.90
42743;DHT22;28397;44.552;-0.848;2022-09-03T18:34:35;23.10;99.90
42743;DHT22;28397;44.552;-0.848;2022-09-03T18:37:22;23.10;99.90
42743;DHT22;28397;44.552;-0.848;2022-09-03T18:40:08;22.90;99.90
42743;DHT22;28397;44.552;-0.848;2022-09-03T18:49:04;22.50;99.90
42743;DHT22;28397;44.552;-0.848;2022-09-03T18:51:57;22.30;99.90
42743;DHT22;28397;44.552;-0.848;2022-09-03T18:58:06;21.70;99.90
42743;DHT22;28397;44.552;-0.848;2022-09-03T19:01:05;21.50;99.90
42743;DHT22;28397;44.552;-0.848;2022-09-03T19:06:58;21.30;99.90
42743;DHT22;28397;44.552;-0.848;2022-09-03T19:09:52;21.10;99.90
42743;DHT22;28397;44.552;-0.848;2022-09-03T19:15:28;20.80;99.90
42743;DHT22;28397;44.552;-0.848;2022-09-03T19:21:30;22.30;99.90
42743;DHT22;28397;44.552;-0.848;2022-09-03T19:24:21;21.10;99.90
42743;DHT22;28397;44.552;-0.848;2022-09-03T19:42:13;21.10;99.90
42743;DHT22;28397;44.552;-0.848;2022-09-03T19:45:25;20.30;99.90
42743;DHT22;28397;44.552;-0.848;2022-09-03T19:51:16;21.10;99.90
42743;DHT22;28397;44.552;-0.848;2022-09-03T19:54:03;20.90;99.90
42743;DHT22;28397;44.552;-0.848;2022-09-03T19:56:50;20.10;99.90
42743;DHT22;28397;44.552;-0.848;2022-09-03T19:59:39;20.30;99.90
42743;DHT22;28397;44.552;-0.848;2022-09-03T20:02:24;21.10;99.90
42743;DHT22;28397;44.552;-0.848;2022-09-03T20:05:21;20.50;99.90
42743;DHT22;28397;44.552;-0.848;2022-09-03T20:08:07;21.20;99.90
42743;DHT22;28397;44.552;-0.848;2022-09-03T20:10:54;20.50;99.90
42743;DHT22;28397;44.552;-0.848;2022-09-03T20:13:21;20.40;99.90
42743;DHT22;28397;44.552;-0.848;2022-09-03T20:15:55;20.50;99.90
42743;DHT22;28397;44.552;-0.848;2022-09-03T20:18:39;20.30;99.90
42743;DHT22;28397;44.552;-0.848;2022-09-03T20:37:52;20.70;99.90
42743;DHT22;28397;44.552;-0.848;2022-09-03T20:43:06;20.30;99.90
42743;DHT22;28397;44.552;-0.848;2022-09-03T20:48:35;20.40;99.90
42743;DHT22;28397;44.552;-0.848;2022-09-03T20:51:16;20.50;99.90
42743;DHT22;28397;44.552;-0.848;2022-09-03T20:53:52;20.10;99.90
42743;DHT22;28397;44.552;-0.848;2022-09-03T20:56:47;19.60;99.90
42743;DHT22;28397;44.552;-0.848;2022-09-03T20:59:45;19.90;99.90
42743;DHT22;28397;44.552;-0.848;2022-09-03T21:11:10;18.70;99.90
42743;DHT22;28397;44.552;-0.848;2022-09-03T21:16:51;19.20;99.90
42743;DHT22;28397;44.552;-0.848;2022-09-03T21:19:22;19.40;99.90
42743;DHT22;28397;44.552;-0.848;2022-09-03T21:24:51;19.00;99.90
42743;DHT22;28397;44.552;-0.848;2022-09-03T21:27:36;19.80;99.90
42743;DHT22;28397;44.552;-0.848;2022-09-03T21:30:06;19.40;99.90
42743;DHT22;28397;44.552;-0.848;2022-09-03T21:32:46;19.20;99.90
42743;DHT22;28397;44.552;-0.848;2022-09-03T21:35:35;19.10;99.90
42743;DHT22;28397;44.552;-0.848;2022-09-03T21:38:13;19.10;99.90
42743;DHT22;28397;44.552;-0.848;2022-09-03T21:43:22;19.70;99.90
42743;DHT22;28397;44.552;-0.848;2022-09-03T21:45:52;18.60;99.90
42743;DHT22;28397;44.552;-0.848;2022-09-03T21:48:26;18.90;99.90
42743;DHT22;28397;44.552;-0.848;2022-09-03T21:50:59;19.30;99.90
42743;DHT22;28397;44.552;-0.848;2022-09-03T21:53:44;19.20;99.90
42743;DHT22;28397;44.552;-0.848;2022-09-03T21:59:26;18.40;99.90
42743;DHT22;28397;44.552;-0.848;2022-09-03T22:02:07;18.30;99.90
42743;DHT22;28397;44.552;-0.848;2022-09-03T22:04:35;18.20;99.90
42743;DHT22;28397;44.552;-0.848;2022-09-03T22:15:15;19.10;99.90